Time;durP1;ratioP1;P1;durP2;ratioP2;P2;SDS_P1;SDS_P2;PMS_P1;PMS_P2;Temp;Humidity;BMP_temperature;BMP_pressure;BME280_temperature;BME280_humidity;BME280_pressure;Samples;Min_cycle;Max_cycle;Signal;HPM_P1;HPM_P2
2022/11/04 00:01:19;;;;;;;3.40;1.85;;;21.20;66.50;;;;;;4979811;28;88183;-87
2022/11/04 00:03:44;;;;;;;3.53;1.95;;;21.20;66.50;;;;;;4979156;28;87828;-88
2022/11/04 00:06:10;;;;;;;3.53;1.98;;;21.20;66.70;;;;;;4983807;28;87885;-88
2022/11/04 00:08:36;;;;;;;4.30;2.13;;;21.20;66.50;;;;;;4982691;28;88139;-88
2022/11/04 00:13:46;;;;;;;3.28;1.60;;;21.10;66.50;;;;;;4975604;28;87270;-88
2022/11/04 00:18:58;;;;;;;3.15;1.98;;;21.10;66.60;;;;;;4982529;28;87351;-88
2022/11/04 00:29:38;;;;;;;4.20;2.05;;;21.10;66.50;;;;;;4979362;28;92664;-88
2022/11/04 00:34:48;;;;;;;1.92;1.40;;;21.10;66.90;;;;;;4983449;28;87267;-88
2022/11/04 00:37:16;;;;;;;4.47;2.10;;;21.10;66.50;;;;;;4981801;28;87042;-88
2022/11/04 00:39:42;;;;;;;2.53;1.67;;;21.00;66.60;;;;;;4982104;28;88136;-88
2022/11/04 00:42:10;;;;;;;2.88;1.83;;;21.00;66.40;;;;;;4981029;28;89928;-88
2022/11/04 00:44:35;;;;;;;3.00;1.75;;;21.10;66.70;;;;;;4981992;28;86894;-88
2022/11/04 00:47:01;;;;;;;2.33;1.95;;;21.00;66.50;;;;;;4982112;28;86911;-88
2022/11/04 00:49:26;;;;;;;5.10;1.73;;;21.00;66.50;;;;;;4981663;28;88772;-87
2022/11/04 00:51:52;;;;;;;3.33;2.03;;;21.00;66.60;;;;;;4981705;28;87838;-88
2022/11/04 00:54:18;;;;;;;3.28;1.85;;;21.00;66.60;;;;;;4979998;28;88025;-88
2022/11/04 00:56:43;;;;;;;2.28;1.52;;;21.00;66.70;;;;;;4982640;28;88011;-89
2022/11/04 00:59:09;;;;;;;3.63;1.85;;;21.00;66.60;;;;;;4981947;28;87317;-88
2022/11/04 01:01:35;;;;;;;3.38;1.67;;;20.90;66.70;;;;;;4982546;28;87824;-88
2022/11/04 01:04:01;;;;;;;5.30;2.25;;;20.90;66.70;;;;;;4982035;28;86907;-88
2022/11/04 01:06:26;;;;;;;3.58;2.10;;;21.00;66.60;;;;;;4981825;28;88137;-88
2022/11/04 01:09:00;;;;;;;3.40;1.80;;;20.90;66.60;;;;;;4982617;28;88441;-88
2022/11/04 01:11:28;;;;;;;2.95;1.50;;;20.90;66.60;;;;;;4980875;28;91272;-88
2022/11/04 01:13:54;;;;;;;2.58;1.70;;;20.90;66.80;;;;;;4982005;28;86874;-88
2022/11/04 01:16:20;;;;;;;2.60;1.60;;;20.90;66.70;;;;;;4981116;28;87747;-89
2022/11/04 01:18:46;;;;;;;3.17;1.85;;;20.90;66.70;;;;;;4980718;28;92264;-88
2022/11/04 01:21:16;;;;;;;2.75;1.80;;;20.90;66.70;;;;;;4982462;28;88832;-88
2022/11/04 01:23:45;;;;;;;3.10;1.88;;;20.90;66.60;;;;;;5004210;28;86906;-87
2022/11/04 01:26:20;;;;;;;2.80;1.80;;;20.90;66.60;;;;;;4981516;28;86845;-88
2022/11/04 01:28:46;;;;;;;3.35;1.75;;;20.80;66.50;;;;;;4980192;28;90463;-88
2022/11/04 01:31:14;;;;;;;2.92;1.88;;;20.80;66.60;;;;;;4981697;28;88549;-88
2022/11/04 01:33:40;;;;;;;3.85;1.73;;;20.80;66.60;;;;;;4982185;28;86842;-88
2022/11/04 01:36:07;;;;;;;2.45;1.42;;;20.80;66.60;;;;;;4982518;28;86987;-88
2022/11/04 01:38:33;;;;;;;2.55;1.50;;;20.80;66.60;;;;;;4982053;28;87351;-88
2022/11/04 01:40:59;;;;;;;2.22;1.65;;;20.80;66.60;;;;;;4981752;28;88377;-89
2022/11/04 01:43:47;;;;;;;3.65;1.75;;;20.80;66.70;;;;;;4981314;28;87693;-88
2022/11/04 01:46:19;;;;;;;3.50;1.90;;;20.80;66.50;;;;;;4981487;28;87132;-88
2022/11/04 01:48:44;;;;;;;2.90;1.70;;;20.80;66.80;;;;;;4981180;28;89836;-88
2022/11/04 01:51:10;;;;;;;4.13;1.67;;;20.80;66.70;;;;;;4982479;28;88275;-87
2022/11/04 01:53:40;;;;;;;2.28;1.60;;;20.70;66.80;;;;;;4981582;28;86863;-88
2022/11/04 01:56:13;;;;;;;2.58;1.40;;;20.80;66.80;;;;;;4980849;28;86902;-88
2022/11/04 01:58:42;;;;;;;3.42;1.60;;;20.70;66.70;;;;;;4981590;28;88611;-88
2022/11/04 02:01:11;;;;;;;3.72;1.83;;;20.70;66.90;;;;;;4988860;28;88380;-88
2022/11/04 02:04:24;;;;;;;2.30;1.73;;;20.70;66.70;;;;;;5001286;28;86901;-86
2022/11/04 02:06:47;;;;;;;3.53;1.95;;;20.70;66.70;;;;;;4963417;28;88417;-86
2022/11/04 02:09:14;;;;;;;1.77;1.50;;;20.70;66.70;;;;;;4980551;28;88404;-88
2022/11/04 02:14:24;;;;;;;5.55;1.75;;;20.70;66.80;;;;;;4981395;28;87129;-88
2022/11/04 02:16:53;;;;;;;2.33;1.52;;;20.70;66.90;;;;;;4980774;28;86907;-89
2022/11/04 02:19:46;;;;;;;2.00;1.60;;;20.70;66.70;;;;;;4981046;28;88464;-88
2022/11/04 02:22:30;;;;;;;3.50;1.95;;;20.70;66.80;;;;;;4980658;28;88404;-87
2022/11/04 02:25:29;;;;;;;2.67;1.75;;;20.70;66.80;;;;;;4999619;28;86953;-88
2022/11/04 02:28:04;;;;;;;;;;;20.70;66.70;;;;;;4981322;28;87326;-86
2022/11/04 02:30:42;;;;;;;2.20;1.63;;;20.70;66.80;;;;;;4976496;28;88272;-88
2022/11/04 02:33:21;;;;;;;2.97;1.70;;;20.70;66.80;;;;;;4961594;28;88322;-88
2022/11/04 02:36:08;;;;;;;1.80;1.30;;;20.60;66.60;;;;;;4964570;28;88113;-88
2022/11/04 02:38:36;;;;;;;2.70;1.63;;;20.60;67.50;;;;;;4979500;28;89613;-88
2022/11/04 02:41:14;;;;;;;2.17;1.63;;;20.60;66.90;;;;;;4979769;28;88262;-87
2022/11/04 02:44:09;;;;;;;2.50;1.70;;;20.60;66.80;;;;;;4971954;28;86856;-88
2022/11/04 02:46:59;;;;;;;2.22;1.65;;;20.60;66.90;;;;;;5004743;28;86898;-89
2022/11/04 02:49:43;;;;;;;1.80;1.15;;;20.60;66.80;;;;;;4980549;28;86927;-88
2022/11/04 02:52:17;;;;;;;2.90;1.38;;;20.60;66.70;;;;;;4980342;28;88676;-88
2022/11/04 02:54:55;;;;;;;1.90;1.60;;;20.60;66.70;;;;;;4980391;28;87340;-88
2022/11/04 02:57:26;;;;;;;3.20;1.70;;;20.60;66.90;;;;;;4979963;28;86855;-87
2022/11/04 03:00:03;;;;;;;2.65;1.50;;;20.50;66.90;;;;;;4980531;28;88011;-86
2022/11/04 03:02:39;;;;;;;2.70;1.48;;;20.50;66.80;;;;;;4979456;28;88367;-88
2022/11/04 03:05:08;;;;;;;2.22;1.40;;;20.60;66.80;;;;;;4979245;28;87618;-88
2022/11/04 03:07:37;;;;;;;2.63;1.80;;;20.50;66.80;;;;;;4980243;28;87160;-88
2022/11/04 03:10:27;;;;;;;1.80;1.40;;;20.50;66.70;;;;;;4979924;28;87316;-88
2022/11/04 03:13:07;;;;;;;1.80;1.23;;;20.50;66.80;;;;;;4978415;28;91800;-88
2022/11/04 03:15:36;;;;;;;2.20;1.30;;;20.50;67.00;;;;;;4980564;28;87439;-88
2022/11/04 03:18:20;;;;;;;1.73;1.30;;;20.50;66.80;;;;;;4981064;28;86878;-88
2022/11/04 03:20:47;;;;;;;2.92;1.67;;;20.50;66.80;;;;;;4980655;28;91218;-88
2022/11/04 03:23:14;;;;;;;2.88;1.42;;;20.50;66.70;;;;;;4979937;28;88562;-88
2022/11/04 03:25:44;;;;;;;1.50;1.40;;;20.50;67.00;;;;;;4980053;28;86985;-89
2022/11/04 03:28:28;;;;;;;2.50;1.63;;;20.50;67.00;;;;;;4980267;28;87832;-88
2022/11/04 03:30:57;;;;;;;1.95;1.25;;;20.50;66.90;;;;;;4978822;28;89586;-88
2022/11/04 03:33:41;;;;;;;;;;;20.50;66.90;;;;;;4980940;28;88180;-88
2022/11/04 03:36:07;;;;;;;1.85;1.60;;;20.50;66.80;;;;;;4981580;28;87817;-88
2022/11/04 03:38:34;;;;;;;2.90;1.90;;;20.50;66.90;;;;;;4979851;28;87184;-88
2022/11/04 03:41:03;;;;;;;2.15;1.40;;;20.50;67.00;;;;;;4977971;28;88878;-88
2022/11/04 03:43:30;;;;;;;2.73;1.60;;;20.40;67.00;;;;;;4979876;28;88988;-88
2022/11/04 03:45:56;;;;;;;2.75;1.50;;;20.40;66.70;;;;;;4980038;28;87421;-87
2022/11/04 03:48:22;;;;;;;2.65;1.65;;;20.40;66.80;;;;;;4979929;28;86904;-88
2022/11/04 03:50:49;;;;;;;1.73;1.35;;;20.40;66.80;;;;;;4980419;28;86946;-88
2022/11/04 03:53:20;;;;;;;2.13;1.27;;;20.40;66.80;;;;;;4979026;28;89319;-88
2022/11/04 03:55:59;;;;;;;2.42;1.45;;;20.40;66.90;;;;;;4978041;28;92317;-88
2022/11/04 03:59:03;;;;;;;2.47;1.60;;;20.40;66.70;;;;;;4979229;28;87342;-87
2022/11/04 04:01:53;;;;;;;2.38;1.73;;;20.40;66.80;;;;;;4969424;28;87432;-88
2022/11/04 04:04:36;;;;;;;1.23;1.10;;;20.40;66.80;;;;;;4968940;28;88512;-87
2022/11/04 04:07:08;;;;;;;1.80;1.20;;;20.40;66.80;;;;;;4973434;28;88328;-87
2022/11/04 04:09:40;;;;;;;2.08;1.20;;;20.40;66.90;;;;;;4980144;28;87220;-88
2022/11/04 04:12:36;;;;;;;1.90;1.40;;;20.40;66.80;;;;;;4980937;28;86624;-88
2022/11/04 04:15:16;;;;;;;2.22;1.30;;;20.40;67.00;;;;;;4977209;28;92860;-88
2022/11/04 04:17:49;;;;;;;2.10;1.40;;;20.40;66.70;;;;;;4977341;28;92310;-88
2022/11/04 04:20:18;;;;;;;2.40;1.40;;;20.40;66.90;;;;;;4977244;28;88052;-88
2022/11/04 04:27:29;;;;;;;1.27;1.13;;;20.40;66.90;;;;;;4977193;28;87038;-88
2022/11/04 04:28:44;;;;;;;2.40;1.47;;;20.40;66.90;;;;;;4976943;28;87348;-88
2022/11/04 04:31:12;;;;;;;3.13;1.27;;;20.30;66.80;;;;;;4977034;28;87232;-88
2022/11/04 04:33:38;;;;;;;1.92;1.40;;;20.30;66.80;;;;;;4976806;28;87555;-88
2022/11/04 04:36:08;;;;;;;1.80;1.30;;;20.30;66.90;;;;;;4976038;28;88083;-87
2022/11/04 04:47:02;;;;;;;1.58;1.27;;;20.30;66.90;;;;;;4976505;28;88009;-88
2022/11/04 04:49:33;;;;;;;2.70;1.50;;;20.30;66.70;;;;;;4977286;28;89113;-88
2022/11/04 04:52:01;;;;;;;2.13;1.50;;;20.30;66.70;;;;;;4968106;28;87546;-88
2022/11/04 04:54:26;;;;;;;2.00;1.35;;;20.30;66.70;;;;;;4982008;28;87053;-87
2022/11/04 04:56:52;;;;;;;1.88;1.17;;;20.30;66.80;;;;;;4982896;28;88673;-88
2022/11/04 04:59:18;;;;;;;2.92;1.33;;;20.30;66.80;;;;;;5013774;28;91464;-88
2022/11/04 05:01:43;;;;;;;2.20;1.23;;;20.30;66.80;;;;;;4982115;28;86941;-88
2022/11/04 05:04:09;;;;;;;2.03;1.00;;;20.30;66.80;;;;;;4982352;28;87013;-88
2022/11/04 05:06:34;;;;;;;2.72;1.48;;;20.30;66.90;;;;;;4981755;28;86852;-88
2022/11/04 05:09:00;;;;;;;1.67;1.30;;;20.30;67.10;;;;;;4982052;28;87837;-88
2022/11/04 05:11:25;;;;;;;1.67;1.10;;;20.20;66.90;;;;;;4981043;28;87772;-88
2022/11/04 05:13:51;;;;;;;2.83;1.35;;;20.20;67.10;;;;;;5013521;28;89820;-88
2022/11/04 05:16:17;;;;;;;1.48;1.20;;;20.20;66.70;;;;;;4981150;28;88729;-88
2022/11/04 05:18:42;;;;;;;1.77;1.20;;;20.20;66.90;;;;;;4980023;28;91395;-88
2022/11/04 05:21:18;;;;;;;1.80;1.40;;;20.30;66.90;;;;;;4982711;28;86847;-88
2022/11/04 05:23:43;;;;;;;2.42;1.25;;;20.30;66.90;;;;;;4971350;28;94586;-88
2022/11/04 05:26:09;;;;;;;1.33;0.90;;;20.20;66.70;;;;;;4981978;28;88089;-88
2022/11/04 05:28:35;;;;;;;2.13;1.58;;;20.20;66.80;;;;;;5005791;28;89894;-88
2022/11/04 05:31:05;;;;;;;4.97;1.45;;;20.20;67.00;;;;;;4981705;28;87223;-87
2022/11/04 05:33:30;;;;;;;2.25;1.35;;;20.20;66.60;;;;;;4981503;28;86826;-88
2022/11/04 05:36:08;;;;;;;1.92;1.30;;;20.20;66.90;;;;;;4981351;28;88921;-87
2022/11/04 05:38:34;;;;;;;2.05;1.10;;;20.20;66.80;;;;;;4981371;28;89161;-88
2022/11/04 05:40:59;;;;;;;2.05;1.27;;;20.20;66.80;;;;;;4981278;28;87044;-88
2022/11/04 05:43:25;;;;;;;1.30;1.00;;;20.20;66.80;;;;;;4979640;28;88479;-87
2022/11/04 05:45:51;;;;;;;1.67;1.13;;;20.20;66.70;;;;;;4981495;28;87056;-88
2022/11/04 05:48:16;;;;;;;1.75;1.40;;;20.20;66.90;;;;;;4981354;28;88583;-88
2022/11/04 05:50:42;;;;;;;2.13;1.38;;;20.20;66.80;;;;;;4980518;28;86822;-89
2022/11/04 05:53:07;;;;;;;2.92;1.30;;;20.20;66.70;;;;;;4981334;28;87394;-88
2022/11/04 05:55:33;;;;;;;3.42;1.73;;;20.20;66.70;;;;;;4979446;28;91552;-88
2022/11/04 05:57:58;;;;;;;1.55;1.25;;;20.30;65.50;;;;;;5013231;28;90144;-87
2022/11/04 06:00:25;;;;;;;2.03;1.23;;;20.40;64.50;;;;;;5017646;28;88210;-87
2022/11/04 06:02:51;;;;;;;2.13;1.10;;;20.30;65.20;;;;;;5018923;28;87621;-87
2022/11/04 06:05:17;;;;;;;2.58;1.15;;;20.30;65.40;;;;;;5018233;28;88165;-87
2022/11/04 06:07:42;;;;;;;2.22;1.40;;;20.30;64.90;;;;;;5018777;28;88451;-88
2022/11/04 06:10:08;;;;;;;5.40;1.70;;;20.30;64.60;;;;;;5019100;28;87062;-88
2022/11/04 06:12:34;;;;;;;9.82;1.67;;;20.30;64.50;;;;;;5018703;28;86832;-87
2022/11/04 06:15:00;;;;;;;6.70;2.13;;;20.30;64.50;;;;;;5001936;28;91891;-87
2022/11/04 06:17:25;;;;;;;7.85;2.25;;;20.30;64.60;;;;;;5019421;28;88201;-88
2022/11/04 06:19:51;;;;;;;4.63;1.77;;;20.30;64.50;;;;;;5018235;28;87069;-88
2022/11/04 06:22:18;;;;;;;4.82;1.95;;;20.20;64.70;;;;;;5000946;28;90691;-89
2022/11/04 06:24:44;;;;;;;4.95;1.48;;;20.20;64.80;;;;;;5018441;28;89264;-88
2022/11/04 06:27:11;;;;;;;2.97;1.65;;;20.30;64.70;;;;;;5002191;28;89946;-87
2022/11/04 06:29:40;;;;;;;5.80;1.40;;;20.30;65.00;;;;;;5018867;28;86914;-86
2022/11/04 06:32:06;;;;;;;;;;;20.40;65.20;;;;;;4989602;28;87577;-87
2022/11/04 06:34:32;;;;;;;8.98;2.22;;;20.50;65.00;;;;;;4988332;28;87942;-86
2022/11/04 06:36:57;;;;;;;9.02;1.65;;;20.80;64.80;;;;;;4980146;28;88254;-88
2022/11/04 06:39:23;;;;;;;8.18;1.83;;;21.00;64.30;;;;;;5012914;28;86889;-88
2022/11/04 06:41:48;;;;;;;4.03;1.55;;;21.20;63.90;;;;;;4982071;28;87183;-87
2022/11/04 06:44:14;;;;;;;6.03;1.75;;;21.30;63.80;;;;;;5011878;28;90120;-87
2022/11/04 06:46:41;;;;;;;10.68;2.63;;;21.50;63.60;;;;;;4981152;28;87907;-87
2022/11/04 06:49:15;;;;;;;10.32;2.83;;;21.60;63.20;;;;;;4978629;28;87862;-87
2022/11/04 06:51:40;;;;;;;11.70;2.83;;;21.60;63.00;;;;;;4980552;28;87303;-89
2022/11/04 06:54:06;;;;;;;15.80;3.50;;;21.70;63.10;;;;;;4982000;28;88163;-87
2022/11/04 06:56:32;;;;;;;15.65;4.57;;;21.70;62.80;;;;;;4979364;28;91776;-86
2022/11/04 06:58:58;;;;;;;15.88;3.95;;;21.80;62.50;;;;;;4982026;28;87212;-87
2022/11/04 07:01:28;;;;;;;16.13;3.70;;;21.80;62.30;;;;;;4980828;28;88190;-87
2022/11/04 07:03:55;;;;;;;13.50;4.32;;;21.80;62.30;;;;;;4981167;28;88580;-89
2022/11/04 07:06:22;;;;;;;18.17;5.00;;;21.80;62.00;;;;;;4975832;28;87337;-88
2022/11/04 07:08:49;;;;;;;19.83;5.75;;;21.80;61.80;;;;;;4980813;28;87029;-85
2022/11/04 07:11:16;;;;;;;14.48;4.20;;;21.80;60.40;;;;;;4973471;28;88054;-87
2022/11/04 07:13:42;;;;;;;18.52;4.78;;;21.80;60.10;;;;;;5009578;28;92480;-87
2022/11/04 07:16:08;;;;;;;18.90;4.93;;;21.80;60.90;;;;;;4983539;28;89276;-87
2022/11/04 07:18:35;;;;;;;16.45;4.38;;;21.80;61.50;;;;;;4987272;28;87005;-88
2022/11/04 07:21:01;;;;;;;19.65;4.15;;;21.90;61.60;;;;;;4980115;28;86930;-86
2022/11/04 07:23:37;;;;;;;19.17;5.13;;;21.90;60.80;;;;;;4982925;28;88512;-87
2022/11/04 07:26:06;;;;;;;14.50;4.68;;;21.80;61.40;;;;;;4994190;28;94223;-87
2022/11/04 07:28:32;;;;;;;16.30;4.72;;;21.80;61.70;;;;;;4978913;28;87047;-87
2022/11/04 07:31:00;;;;;;;18.23;4.63;;;21.80;62.10;;;;;;4982656;28;87139;-88
2022/11/04 07:33:26;;;;;;;16.05;5.20;;;21.80;62.30;;;;;;4979735;28;88212;-88
2022/11/04 07:35:52;;;;;;;19.95;5.18;;;21.80;61.20;;;;;;4980283;28;88345;-87
2022/11/04 07:38:19;;;;;;;19.38;4.82;;;21.80;60.90;;;;;;4980304;28;88248;-87
2022/11/04 07:40:45;;;;;;;17.58;4.97;;;21.80;60.50;;;;;;4979091;28;90010;-88
2022/11/04 07:43:10;;;;;;;20.65;5.25;;;21.90;61.70;;;;;;4968354;28;88517;-88
2022/11/04 07:45:36;;;;;;;19.42;5.60;;;21.90;61.40;;;;;;4978262;28;89229;-86
2022/11/04 07:48:02;;;;;;;14.80;4.43;;;22.00;61.00;;;;;;4979257;28;86935;-88
2022/11/04 07:50:28;;;;;;;22.55;5.03;;;22.00;61.50;;;;;;4980003;28;93070;-87
2022/11/04 07:52:53;;;;;;;24.40;5.15;;;21.90;61.50;;;;;;4982045;28;89291;-87
2022/11/04 07:55:19;;;;;;;20.63;5.38;;;21.90;61.60;;;;;;4999365;28;88468;-87
2022/11/04 07:57:48;;;;;;;15.10;4.20;;;22.00;62.10;;;;;;4980967;28;86972;-88
2022/11/04 08:00:15;;;;;;;18.90;5.33;;;22.00;62.10;;;;;;4980131;28;87374;-87
2022/11/04 08:02:45;;;;;;;19.33;4.93;;;22.00;62.40;;;;;;4979662;28;89554;-87
2022/11/04 08:05:12;;;;;;;25.15;5.30;;;22.00;61.80;;;;;;4979674;28;88484;-87
2022/11/04 08:07:38;;;;;;;21.85;5.43;;;22.00;61.50;;;;;;4981107;28;86915;-88
2022/11/04 08:10:04;;;;;;;12.10;4.82;;;22.00;61.20;;;;;;4980913;28;86932;-87
2022/11/04 08:12:31;;;;;;;18.40;4.68;;;22.00;60.70;;;;;;4980817;28;87819;-86
2022/11/04 08:14:57;;;;;;;16.48;3.97;;;22.10;61.30;;;;;;4980964;28;87861;-87
2022/11/04 08:17:23;;;;;;;16.90;4.88;;;22.00;60.40;;;;;;4980214;28;87019;-87
2022/11/04 08:19:49;;;;;;;13.27;4.10;;;22.10;60.60;;;;;;4980815;28;87491;-87
2022/11/04 08:22:14;;;;;;;11.52;4.25;;;22.10;60.00;;;;;;4980295;28;88303;-85
2022/11/04 08:24:40;;;;;;;17.67;4.18;;;22.10;60.20;;;;;;4978595;28;90061;-87
2022/11/04 08:27:09;;;;;;;13.68;4.15;;;22.10;61.00;;;;;;4983853;28;87778;-88
2022/11/04 08:29:35;;;;;;;14.07;4.07;;;22.10;60.70;;;;;;4983649;28;87976;-86
2022/11/04 08:32:01;;;;;;;18.20;4.30;;;22.10;60.70;;;;;;4983381;28;87065;-87
2022/11/04 08:34:26;;;;;;;13.45;3.97;;;22.10;60.80;;;;;;4983393;28;87865;-86
2022/11/04 08:36:52;;;;;;;13.63;4.03;;;22.10;61.00;;;;;;4982908;28;87068;-86
2022/11/04 08:39:18;;;;;;;11.73;3.72;;;22.10;60.50;;;;;;5014534;28;90707;-87
2022/11/04 08:41:44;;;;;;;11.55;3.88;;;22.10;60.70;;;;;;4983683;28;88680;-86
2022/11/04 08:44:22;;;;;;;13.35;3.70;;;22.10;61.10;;;;;;4982698;28;88044;-88
2022/11/04 08:46:48;;;;;;;14.55;4.45;;;22.20;61.70;;;;;;4983151;28;87025;-88
2022/11/04 08:49:14;;;;;;;12.35;3.50;;;22.20;61.80;;;;;;4982852;28;88001;-87
2022/11/04 08:51:43;;;;;;;12.57;3.95;;;22.20;61.10;;;;;;4981780;28;89369;-88
2022/11/04 08:54:09;;;;;;;11.80;3.85;;;22.20;61.70;;;;;;4984090;28;89103;-87
2022/11/04 08:56:37;;;;;;;11.27;3.42;;;22.10;60.70;;;;;;4982480;28;86929;-85
2022/11/04 08:59:03;;;;;;;13.95;4.05;;;22.10;61.70;;;;;;5014535;28;90574;-86
2022/11/04 09:01:31;;;;;;;8.65;3.20;;;22.10;61.10;;;;;;5018756;28;90916;-87
2022/11/04 09:03:57;;;;;;;9.93;3.60;;;22.10;61.20;;;;;;5019534;28;88167;-87
2022/11/04 09:06:29;;;;;;;10.55;3.22;;;22.10;62.20;;;;;;5020490;28;87228;-87
2022/11/04 09:08:56;;;;;;;7.13;2.63;;;22.10;61.00;;;;;;5020610;28;86595;-87
2022/11/04 09:11:22;;;;;;;11.40;3.42;;;22.10;58.70;;;;;;5009316;28;88230;-84
2022/11/04 09:13:48;;;;;;;12.73;3.25;;;22.00;59.10;;;;;;5019311;28;88554;-86
2022/11/04 09:16:18;;;;;;;10.57;3.20;;;22.00;58.90;;;;;;5019426;28;88024;-87
2022/11/04 09:18:46;;;;;;;10.13;3.10;;;22.00;59.40;;;;;;5018703;28;87322;-88
2022/11/04 09:21:12;;;;;;;12.53;3.17;;;22.00;58.40;;;;;;5007632;28;88126;-87
2022/11/04 09:23:38;;;;;;;9.48;2.88;;;21.90;58.40;;;;;;5018922;28;87767;-88
2022/11/04 09:26:08;;;;;;;9.48;2.78;;;22.00;59.50;;;;;;5002201;28;87252;-86
2022/11/04 09:28:34;;;;;;;10.25;3.65;;;22.10;59.00;;;;;;5018950;28;87165;-88
2022/11/04 09:31:04;;;;;;;11.38;2.50;;;22.00;59.00;;;;;;5018839;28;87601;-87
2022/11/04 09:33:31;;;;;;;14.30;3.22;;;22.10;58.80;;;;;;5003849;28;89376;-88
2022/11/04 09:35:57;;;;;;;7.55;2.58;;;22.10;59.20;;;;;;5004078;28;86808;-88
2022/11/04 09:38:24;;;;;;;14.07;3.17;;;22.10;58.80;;;;;;5009595;28;87557;-88
2022/11/04 09:40:50;;;;;;;9.13;2.60;;;22.10;58.60;;;;;;4981184;28;89244;-87
2022/11/04 09:43:47;;;;;;;12.82;2.55;;;22.10;58.60;;;;;;4979335;28;92526;-87
2022/11/04 09:46:13;;;;;;;9.35;2.67;;;22.10;59.20;;;;;;4980763;28;92834;-86
2022/11/04 09:48:48;;;;;;;9.70;2.83;;;22.00;59.30;;;;;;4981447;28;88510;-88
2022/11/04 09:51:17;;;;;;;6.18;2.30;;;22.10;59.60;;;;;;4981278;28;88932;-88
2022/11/04 09:53:56;;;;;;;8.68;2.40;;;22.10;59.20;;;;;;4982216;28;87022;-89
2022/11/04 09:56:31;;;;;;;11.30;3.38;;;22.00;59.30;;;;;;4980956;28;86906;-89
2022/11/04 09:58:57;;;;;;;7.85;2.40;;;22.00;59.40;;;;;;4980359;28;87403;-88
2022/11/04 10:01:44;;;;;;;11.20;2.90;;;21.90;59.50;;;;;;4979922;28;90132;-87
2022/11/04 10:04:13;;;;;;;9.77;2.50;;;22.00;59.50;;;;;;4980657;28;88477;-88
2022/11/04 10:06:56;;;;;;;8.02;2.47;;;22.00;59.60;;;;;;4986491;28;88411;-89
2022/11/04 10:09:36;;;;;;;7.35;2.25;;;22.00;59.50;;;;;;4980964;28;87311;-89
2022/11/04 10:12:23;;;;;;;10.88;2.10;;;21.90;58.80;;;;;;4967562;28;88519;-88
2022/11/04 10:15:11;;;;;;;6.70;2.15;;;22.00;59.00;;;;;;4980936;28;92598;-88
2022/11/04 10:18:01;;;;;;;6.20;2.15;;;21.90;59.00;;;;;;5012924;28;87258;-88
2022/11/04 10:20:34;;;;;;;9.73;2.55;;;21.90;59.00;;;;;;4961115;28;87450;-88
2022/11/04 10:23:11;;;;;;;6.20;1.88;;;21.90;58.80;;;;;;4975240;28;88647;-88
2022/11/04 10:25:40;;;;;;;6.38;2.33;;;21.90;58.70;;;;;;4981377;28;87838;-89
2022/11/04 10:28:13;;;;;;;11.57;2.50;;;22.00;58.30;;;;;;4980063;28;86967;-88
2022/11/04 10:30:42;;;;;;;9.15;2.20;;;22.10;58.60;;;;;;4964793;28;87517;-89
2022/11/04 10:33:26;;;;;;;7.93;2.33;;;22.20;59.00;;;;;;4978811;28;92778;-87
2022/11/04 10:35:57;;;;;;;5.82;2.17;;;22.20;58.60;;;;;;5014098;28;96642;-88
2022/11/04 10:38:46;;;;;;;6.97;1.90;;;22.20;59.00;;;;;;4978987;28;87630;-88
2022/11/04 10:41:36;;;;;;;7.38;2.63;;;22.20;59.10;;;;;;4981455;28;87401;-86
2022/11/04 10:44:27;;;;;;;10.18;2.78;;;22.30;58.90;;;;;;4976753;28;88239;-87
2022/11/04 10:47:08;;;;;;;11.35;2.53;;;22.30;59.00;;;;;;4880940;28;88528;-86
2022/11/04 10:49:59;;;;;;;9.15;2.38;;;22.30;58.60;;;;;;4897586;28;87052;-89
2022/11/04 10:52:32;;;;;;;9.73;2.30;;;22.30;58.40;;;;;;4901003;28;87211;-86
2022/11/04 10:54:57;;;;;;;8.70;2.65;;;22.30;58.90;;;;;;4883769;28;90640;-88
2022/11/04 10:57:24;;;;;;;8.32;2.28;;;22.30;59.80;;;;;;4900649;28;87253;-88
2022/11/04 10:59:55;;;;;;;10.82;2.50;;;22.30;59.90;;;;;;4900989;28;88671;-88
2022/11/04 11:02:46;;;;;;;8.38;2.38;;;22.30;60.30;;;;;;4900393;28;87510;-87
2022/11/04 11:05:16;;;;;;;10.20;2.78;;;22.30;60.70;;;;;;4852271;29;88548;-86
2022/11/04 11:07:52;;;;;;;9.40;2.80;;;22.30;60.50;;;;;;4861730;28;87815;-86
2022/11/04 11:10:27;;;;;;;9.10;3.03;;;22.30;60.90;;;;;;4846124;28;87136;-88
2022/11/04 11:12:56;;;;;;;8.38;2.67;;;22.40;60.70;;;;;;4864700;28;87520;-87
2022/11/04 11:15:33;;;;;;;;;;;22.50;60.70;;;;;;4845886;29;91571;-86
2022/11/04 11:18:11;;;;;;;10.52;2.88;;;22.40;60.30;;;;;;4864746;29;87576;-86
2022/11/04 11:20:39;;;;;;;7.68;2.75;;;22.40;60.00;;;;;;4856390;29;86947;-88
2022/11/04 11:23:25;;;;;;;13.27;2.77;;;22.40;60.50;;;;;;4849176;28;87049;-89
2022/11/04 11:25:51;;;;;;;7.50;2.40;;;22.30;60.20;;;;;;4879769;28;92959;-87
2022/11/04 11:28:24;;;;;;;13.48;3.15;;;22.40;60.10;;;;;;4879501;28;89834;-87
2022/11/04 11:30:55;;;;;;;14.10;3.00;;;22.40;59.60;;;;;;4880565;28;87420;-87
2022/11/04 11:33:28;;;;;;;12.57;2.70;;;22.40;59.90;;;;;;4863509;28;90534;-86
2022/11/04 11:35:58;;;;;;;8.02;2.97;;;22.40;59.70;;;;;;4880281;28;88659;-85
2022/11/04 11:38:26;;;;;;;10.35;2.80;;;22.40;59.90;;;;;;4880307;28;88206;-85
2022/11/04 11:41:03;;;;;;;17.63;2.90;;;22.40;59.80;;;;;;4864092;28;87128;-86
2022/11/04 11:43:32;;;;;;;8.38;2.83;;;22.40;60.00;;;;;;4979911;28;86745;-86
2022/11/04 11:45:59;;;;;;;10.03;2.53;;;22.40;60.20;;;;;;4978088;28;95554;-87
2022/11/04 11:48:38;;;;;;;9.50;2.60;;;22.50;60.00;;;;;;4979591;28;88167;-87
2022/11/04 11:51:04;;;;;;;12.05;2.95;;;22.50;59.30;;;;;;4975250;28;87781;-86
2022/11/04 11:53:33;;;;;;;12.48;3.10;;;22.50;59.30;;;;;;4979779;28;87204;-84
2022/11/04 11:56:17;;;;;;;6.10;2.57;;;22.40;59.30;;;;;;4979971;28;88661;-86
2022/11/04 11:58:56;;;;;;;8.63;2.78;;;22.50;59.50;;;;;;4978326;28;91534;-87
2022/11/04 12:01:35;;;;;;;11.88;2.35;;;22.40;58.90;;;;;;4989567;28;87110;-89
2022/11/04 12:04:00;;;;;;;7.75;2.42;;;22.30;58.60;;;;;;4986631;28;88253;-85
2022/11/04 12:07:02;;;;;;;15.77;2.83;;;22.30;58.70;;;;;;4983316;28;88753;-85
2022/11/04 12:09:28;;;;;;;9.15;2.65;;;22.40;59.60;;;;;;4977823;28;88261;-88
2022/11/04 12:12:26;;;;;;;8.95;2.70;;;22.50;59.70;;;;;;4982131;28;87339;-86
2022/11/04 12:15:32;;;;;;;10.10;2.40;;;22.40;59.70;;;;;;4980161;28;91473;-86
2022/11/04 12:18:05;;;;;;;7.20;1.98;;;22.40;59.60;;;;;;4961318;28;96827;-88
2022/11/04 12:20:58;;;;;;;13.05;2.88;;;22.40;59.80;;;;;;4979823;28;88069;-86
2022/11/04 12:23:37;;;;;;;11.10;2.25;;;22.40;60.10;;;;;;4905690;28;86928;-86
2022/11/04 12:26:05;;;;;;;13.23;2.38;;;22.40;60.60;;;;;;4900516;28;87332;-87
2022/11/04 12:28:44;;;;;;;11.50;2.22;;;22.40;61.20;;;;;;4902791;28;88218;-87
2022/11/04 12:31:40;;;;;;;13.80;2.83;;;22.40;60.30;;;;;;4902972;28;90149;-88
2022/11/04 12:34:23;;;;;;;8.88;2.10;;;22.40;60.60;;;;;;4902397;28;87059;-87
2022/11/04 12:37:24;;;;;;;13.32;3.28;;;22.50;61.20;;;;;;4902396;28;90874;-88
2022/11/04 12:40:17;;;;;;;11.05;2.05;;;22.40;60.50;;;;;;4875761;28;87567;-85
2022/11/04 12:43:08;;;;;;;12.60;2.25;;;22.40;60.30;;;;;;4879511;28;95817;-87
2022/11/04 12:46:22;;;;;;;13.68;2.53;;;22.30;60.20;;;;;;4876661;28;88083;-88
2022/11/04 12:49:18;;;;;;;7.88;2.33;;;22.20;60.20;;;;;;4863632;29;86910;-87
2022/11/04 12:52:11;;;;;;;12.80;2.35;;;22.20;59.20;;;;;;4863874;29;88225;-86
2022/11/04 12:55:05;;;;;;;9.32;2.47;;;22.20;59.70;;;;;;4864541;29;88345;-87
2022/11/04 12:57:30;;;;;;;10.90;2.17;;;22.20;60.70;;;;;;4864984;29;87269;-88
2022/11/04 13:00:16;;;;;;;10.68;2.45;;;22.30;60.90;;;;;;4880234;28;87121;-88
2022/11/04 13:02:53;;;;;;;13.45;1.98;;;22.30;60.90;;;;;;4921087;28;93161;-87
2022/11/04 13:05:38;;;;;;;8.32;2.40;;;22.40;60.40;;;;;;4923059;28;88959;-87
2022/11/04 13:08:30;;;;;;;10.60;2.30;;;22.40;60.80;;;;;;4922817;28;87063;-87
2022/11/04 13:11:23;;;;;;;9.88;1.92;;;22.30;60.80;;;;;;4921364;28;87050;-92
2022/11/04 13:13:57;;;;;;;9.02;2.17;;;22.40;61.40;;;;;;4920660;28;89564;-92
2022/11/04 13:16:23;;;;;;;15.57;2.58;;;22.40;61.70;;;;;;4939281;28;89083;-91
2022/11/04 13:18:50;;;;;;;11.63;2.45;;;22.40;60.70;;;;;;4945929;28;87595;-92
2022/11/04 13:21:29;;;;;;;12.10;2.40;;;22.30;60.10;;;;;;4942294;28;87330;-91
2022/11/04 13:24:05;;;;;;;12.18;3.10;;;22.40;61.40;;;;;;4937349;28;88185;-92
2022/11/04 13:26:31;;;;;;;10.27;2.40;;;22.40;61.40;;;;;;4982858;28;90268;-92
2022/11/04 13:29:21;;;;;;;10.52;2.38;;;22.40;61.50;;;;;;4981796;28;86933;-91
2022/11/04 13:31:54;;;;;;;;;;;22.40;61.10;;;;;;4982808;28;87860;-92
2022/11/04 13:35:01;;;;;;;7.38;2.28;;;22.40;60.80;;;;;;4982537;28;91287;-90
2022/11/04 13:37:41;;;;;;;8.05;2.45;;;22.40;61.40;;;;;;4978210;28;89919;-91
2022/11/04 13:40:18;;;;;;;12.15;2.03;;;22.40;61.40;;;;;;4964946;28;87999;-92
2022/11/04 13:45:54;;;;;;;13.90;2.53;;;22.40;61.20;;;;;;4977423;28;88047;-91